sensor_id;sensor_type;location;lat;lon;timestamp;P1;durP1;ratioP1;P2;durP2;ratioP2
65375;SDS011;51976;47.332;9.404;2023-08-30T00:00:36;0.95;;;0.45;;
65375;SDS011;51976;47.332;9.404;2023-08-30T00:03:02;0.63;;;0.52;;
65375;SDS011;51976;47.332;9.404;2023-08-30T00:05:27;0.80;;;0.57;;
65375;SDS011;51976;47.332;9.404;2023-08-30T00:07:53;1.45;;;0.47;;
65375;SDS011;51976;47.332;9.404;2023-08-30T00:10:19;0.75;;;0.60;;
65375;SDS011;51976;47.332;9.404;2023-08-30T00:12:44;0.70;;;0.50;;
65375;SDS011;51976;47.332;9.404;2023-08-30T00:15:09;1.27;;;0.65;;
65375;SDS011;51976;47.332;9.404;2023-08-30T00:17:35;0.85;;;0.60;;
65375;SDS011;51976;47.332;9.404;2023-08-30T00:20:00;0.82;;;0.60;;
65375;SDS011;51976;47.332;9.404;2023-08-30T00:22:26;1.58;;;0.57;;
65375;SDS011;51976;47.332;9.404;2023-08-30T00:24:52;1.10;;;0.52;;
65375;SDS011;51976;47.332;9.404;2023-08-30T00:27:18;0.68;;;0.45;;
65375;SDS011;51976;47.332;9.404;2023-08-30T00:29:45;0.95;;;0.70;;
65375;SDS011;51976;47.332;9.404;2023-08-30T00:32:11;1.20;;;0.70;;
65375;SDS011;51976;47.332;9.404;2023-08-30T00:34:36;3.40;;;1.70;;
65375;SDS011;51976;47.332;9.404;2023-08-30T00:37:02;6.35;;;1.80;;
65375;SDS011;51976;47.332;9.404;2023-08-30T00:39:27;4.55;;;0.85;;
65375;SDS011;51976;47.332;9.404;2023-08-30T00:41:52;1.23;;;0.70;;
65375;SDS011;51976;47.332;9.404;2023-08-30T00:44:18;0.95;;;0.52;;
65375;SDS011;51976;47.332;9.404;2023-08-30T00:46:43;1.60;;;0.50;;
65375;SDS011;51976;47.332;9.404;2023-08-30T00:49:09;0.65;;;0.43;;
65375;SDS011;51976;47.332;9.404;2023-08-30T00:51:35;2.58;;;0.60;;
65375;SDS011;51976;47.332;9.404;2023-08-30T00:54:01;1.17;;;0.80;;
65375;SDS011;51976;47.332;9.404;2023-08-30T00:56:27;2.00;;;0.70;;
65375;SDS011;51976;47.332;9.404;2023-08-30T00:58:52;1.10;;;0.52;;
65375;SDS011;51976;47.332;9.404;2023-08-30T01:01:18;1.48;;;0.75;;
65375;SDS011;51976;47.332;9.404;2023-08-30T01:03:44;1.40;;;0.70;;
65375;SDS011;51976;47.332;9.404;2023-08-30T01:06:10;3.72;;;0.68;;
65375;SDS011;51976;47.332;9.404;2023-08-30T01:08:35;3.40;;;1.20;;
65375;SDS011;51976;47.332;9.404;2023-08-30T01:11:06;2.72;;;1.50;;
65375;SDS011;51976;47.332;9.404;2023-08-30T01:13:40;3.03;;;1.45;;
65375;SDS011;51976;47.332;9.404;2023-08-30T01:16:10;2.25;;;1.40;;
65375;SDS011;51976;47.332;9.404;2023-08-30T01:18:36;3.03;;;1.60;;
65375;SDS011;51976;47.332;9.404;2023-08-30T01:21:04;2.25;;;1.40;;
65375;SDS011;51976;47.332;9.404;2023-08-30T01:23:40;2.67;;;1.42;;
65375;SDS011;51976;47.332;9.404;2023-08-30T01:26:15;4.32;;;1.50;;
65375;SDS011;51976;47.332;9.404;2023-08-30T01:28:53;2.35;;;1.20;;
65375;SDS011;51976;47.332;9.404;2023-08-30T01:31:21;2.28;;;1.17;;
65375;SDS011;51976;47.332;9.404;2023-08-30T01:33:49;1.52;;;1.13;;
65375;SDS011;51976;47.332;9.404;2023-08-30T01:36:15;1.65;;;1.00;;
65375;SDS011;51976;47.332;9.404;2023-08-30T01:38:41;2.10;;;1.00;;
65375;SDS011;51976;47.332;9.404;2023-08-30T01:41:08;3.80;;;1.00;;
65375;SDS011;51976;47.332;9.404;2023-08-30T01:43:34;2.60;;;0.80;;
65375;SDS011;51976;47.332;9.404;2023-08-30T01:46:00;1.42;;;0.85;;
65375;SDS011;51976;47.332;9.404;2023-08-30T01:48:27;1.60;;;1.02;;
65375;SDS011;51976;47.332;9.404;2023-08-30T01:50:54;1.50;;;0.90;;
65375;SDS011;51976;47.332;9.404;2023-08-30T01:53:23;2.13;;;0.82;;
65375;SDS011;51976;47.332;9.404;2023-08-30T01:55:50;1.20;;;0.85;;
65375;SDS011;51976;47.332;9.404;2023-08-30T01:58:15;1.13;;;0.70;;
65375;SDS011;51976;47.332;9.404;2023-08-30T02:00:41;1.55;;;0.93;;
65375;SDS011;51976;47.332;9.404;2023-08-30T02:03:07;1.13;;;0.98;;
65375;SDS011;51976;47.332;9.404;2023-08-30T02:05:36;1.13;;;0.85;;
65375;SDS011;51976;47.332;9.404;2023-08-30T02:08:11;1.17;;;0.80;;
65375;SDS011;51976;47.332;9.404;2023-08-30T02:10:41;1.45;;;1.00;;
65375;SDS011;51976;47.332;9.404;2023-08-30T02:13:09;4.07;;;1.83;;
65375;SDS011;51976;47.332;9.404;2023-08-30T02:15:37;1.10;;;0.90;;
65375;SDS011;51976;47.332;9.404;2023-08-30T02:18:04;1.42;;;0.80;;
65375;SDS011;51976;47.332;9.404;2023-08-30T02:20:31;2.17;;;0.77;;
65375;SDS011;51976;47.332;9.404;2023-08-30T02:22:59;1.75;;;0.80;;
65375;SDS011;51976;47.332;9.404;2023-08-30T02:25:25;1.33;;;0.90;;
65375;SDS011;51976;47.332;9.404;2023-08-30T02:27:50;1.83;;;0.85;;
65375;SDS011;51976;47.332;9.404;2023-08-30T02:30:16;1.90;;;0.70;;
65375;SDS011;51976;47.332;9.404;2023-08-30T02:32:41;1.10;;;0.70;;
65375;SDS011;51976;47.332;9.404;2023-08-30T02:35:07;1.42;;;0.80;;
65375;SDS011;51976;47.332;9.404;2023-08-30T02:37:32;1.50;;;0.70;;
65375;SDS011;51976;47.332;9.404;2023-08-30T02:39:58;1.40;;;0.77;;
65375;SDS011;51976;47.332;9.404;2023-08-30T02:42:23;1.80;;;0.82;;
65375;SDS011;51976;47.332;9.404;2023-08-30T02:44:51;1.77;;;0.85;;
65375;SDS011;51976;47.332;9.404;2023-08-30T02:47:16;0.90;;;0.70;;
65375;SDS011;51976;47.332;9.404;2023-08-30T02:49:42;2.25;;;0.60;;
65375;SDS011;51976;47.332;9.404;2023-08-30T02:52:07;1.23;;;0.88;;
65375;SDS011;51976;47.332;9.404;2023-08-30T02:54:32;1.02;;;0.75;;
65375;SDS011;51976;47.332;9.404;2023-08-30T02:56:58;2.17;;;0.65;;
65375;SDS011;51976;47.332;9.404;2023-08-30T02:59:23;2.35;;;0.80;;
65375;SDS011;51976;47.332;9.404;2023-08-30T03:01:48;1.80;;;0.82;;
65375;SDS011;51976;47.332;9.404;2023-08-30T03:04:14;1.58;;;0.88;;
65375;SDS011;51976;47.332;9.404;2023-08-30T03:06:39;1.00;;;0.70;;
65375;SDS011;51976;47.332;9.404;2023-08-30T03:09:04;2.88;;;0.90;;
65375;SDS011;51976;47.332;9.404;2023-08-30T03:11:31;1.17;;;0.90;;
65375;SDS011;51976;47.332;9.404;2023-08-30T03:13:57;1.33;;;1.10;;
65375;SDS011;51976;47.332;9.404;2023-08-30T03:16:22;1.58;;;1.17;;
65375;SDS011;51976;47.332;9.404;2023-08-30T03:18:47;2.40;;;1.00;;
65375;SDS011;51976;47.332;9.404;2023-08-30T03:21:13;1.23;;;0.88;;
65375;SDS011;51976;47.332;9.404;2023-08-30T03:23:39;2.00;;;1.08;;
65375;SDS011;51976;47.332;9.404;2023-08-30T03:26:08;1.13;;;0.82;;
65375;SDS011;51976;47.332;9.404;2023-08-30T03:28:34;3.47;;;1.25;;
65375;SDS011;51976;47.332;9.404;2023-08-30T03:31:00;1.75;;;1.02;;
65375;SDS011;51976;47.332;9.404;2023-08-30T03:33:25;1.25;;;0.90;;
65375;SDS011;51976;47.332;9.404;2023-08-30T03:35:50;1.58;;;1.00;;
65375;SDS011;51976;47.332;9.404;2023-08-30T03:38:16;4.45;;;1.00;;
65375;SDS011;51976;47.332;9.404;2023-08-30T03:40:41;1.50;;;1.08;;
65375;SDS011;51976;47.332;9.404;2023-08-30T03:43:06;1.50;;;1.00;;
65375;SDS011;51976;47.332;9.404;2023-08-30T03:45:35;1.65;;;0.90;;
65375;SDS011;51976;47.332;9.404;2023-08-30T03:48:01;2.03;;;1.45;;
65375;SDS011;51976;47.332;9.404;2023-08-30T03:50:27;1.35;;;1.10;;
65375;SDS011;51976;47.332;9.404;2023-08-30T03:52:53;3.05;;;1.15;;
65375;SDS011;51976;47.332;9.404;2023-08-30T03:55:18;1.73;;;0.90;;
65375;SDS011;51976;47.332;9.404;2023-08-30T03:57:43;3.50;;;2.20;;
65375;SDS011;51976;47.332;9.404;2023-08-30T04:00:09;5.05;;;2.42;;
65375;SDS011;51976;47.332;9.404;2023-08-30T04:02:36;3.80;;;2.47;;
65375;SDS011;51976;47.332;9.404;2023-08-30T04:05:01;7.65;;;3.22;;
65375;SDS011;51976;47.332;9.404;2023-08-30T04:07:26;4.60;;;2.58;;
65375;SDS011;51976;47.332;9.404;2023-08-30T04:09:52;2.22;;;1.50;;
65375;SDS011;51976;47.332;9.404;2023-08-30T04:12:17;3.45;;;2.10;;
65375;SDS011;51976;47.332;9.404;2023-08-30T04:14:42;2.92;;;1.65;;
65375;SDS011;51976;47.332;9.404;2023-08-30T04:17:08;2.83;;;1.77;;
65375;SDS011;51976;47.332;9.404;2023-08-30T04:19:33;2.65;;;1.88;;
65375;SDS011;51976;47.332;9.404;2023-08-30T04:21:58;2.40;;;1.80;;
65375;SDS011;51976;47.332;9.404;2023-08-30T04:24:24;2.13;;;1.70;;
65375;SDS011;51976;47.332;9.404;2023-08-30T04:26:49;2.22;;;1.60;;
65375;SDS011;51976;47.332;9.404;2023-08-30T04:29:16;2.47;;;1.60;;
65375;SDS011;51976;47.332;9.404;2023-08-30T04:31:43;3.15;;;1.60;;
65375;SDS011;51976;47.332;9.404;2023-08-30T04:34:08;2.97;;;1.40;;
65375;SDS011;51976;47.332;9.404;2023-08-30T04:36:34;2.13;;;1.38;;
65375;SDS011;51976;47.332;9.404;2023-08-30T04:38:59;2.17;;;1.45;;
65375;SDS011;51976;47.332;9.404;2023-08-30T04:41:24;2.17;;;1.30;;
65375;SDS011;51976;47.332;9.404;2023-08-30T04:43:50;1.38;;;0.95;;
65375;SDS011;51976;47.332;9.404;2023-08-30T04:46:15;1.77;;;1.20;;
65375;SDS011;51976;47.332;9.404;2023-08-30T04:48:40;1.75;;;1.33;;
65375;SDS011;51976;47.332;9.404;2023-08-30T04:51:06;2.22;;;1.40;;
65375;SDS011;51976;47.332;9.404;2023-08-30T04:53:31;1.63;;;1.17;;
65375;SDS011;51976;47.332;9.404;2023-08-30T04:55:57;2.45;;;1.42;;
65375;SDS011;51976;47.332;9.404;2023-08-30T04:58:22;1.65;;;1.20;;
65375;SDS011;51976;47.332;9.404;2023-08-30T05:00:48;2.20;;;1.38;;
65375;SDS011;51976;47.332;9.404;2023-08-30T05:03:13;1.55;;;1.20;;
65375;SDS011;51976;47.332;9.404;2023-08-30T05:05:39;2.25;;;1.13;;
65375;SDS011;51976;47.332;9.404;2023-08-30T05:08:04;2.88;;;1.80;;
65375;SDS011;51976;47.332;9.404;2023-08-30T05:10:30;2.53;;;1.50;;
65375;SDS011;51976;47.332;9.404;2023-08-30T05:12:55;2.03;;;1.17;;
65375;SDS011;51976;47.332;9.404;2023-08-30T05:15:21;1.75;;;1.08;;
65375;SDS011;51976;47.332;9.404;2023-08-30T05:17:46;4.22;;;1.15;;
65375;SDS011;51976;47.332;9.404;2023-08-30T05:20:12;2.60;;;1.30;;
65375;SDS011;51976;47.332;9.404;2023-08-30T05:22:37;1.85;;;1.10;;
65375;SDS011;51976;47.332;9.404;2023-08-30T05:25:03;2.10;;;1.27;;
65375;SDS011;51976;47.332;9.404;2023-08-30T05:27:29;5.40;;;1.00;;
65375;SDS011;51976;47.332;9.404;2023-08-30T05:29:54;1.70;;;1.10;;
65375;SDS011;51976;47.332;9.404;2023-08-30T05:32:21;3.58;;;0.93;;
65375;SDS011;51976;47.332;9.404;2023-08-30T05:34:47;3.08;;;0.98;;
65375;SDS011;51976;47.332;9.404;2023-08-30T05:37:12;4.90;;;1.23;;
65375;SDS011;51976;47.332;9.404;2023-08-30T05:39:38;3.47;;;1.65;;
65375;SDS011;51976;47.332;9.404;2023-08-30T05:42:03;5.88;;;1.40;;
65375;SDS011;51976;47.332;9.404;2023-08-30T05:44:29;4.22;;;1.80;;
65375;SDS011;51976;47.332;9.404;2023-08-30T05:46:55;14.77;;;2.00;;
65375;SDS011;51976;47.332;9.404;2023-08-30T05:49:20;11.55;;;2.15;;
65375;SDS011;51976;47.332;9.404;2023-08-30T05:51:45;12.07;;;2.20;;
65375;SDS011;51976;47.332;9.404;2023-08-30T05:54:12;4.13;;;1.90;;
65375;SDS011;51976;47.332;9.404;2023-08-30T05:56:38;3.85;;;1.52;;
65375;SDS011;51976;47.332;9.404;2023-08-30T05:59:03;4.85;;;1.30;;
65375;SDS011;51976;47.332;9.404;2023-08-30T06:01:29;2.20;;;1.52;;
65375;SDS011;51976;47.332;9.404;2023-08-30T06:03:56;1.95;;;1.27;;
65375;SDS011;51976;47.332;9.404;2023-08-30T06:06:21;2.80;;;1.52;;
65375;SDS011;51976;47.332;9.404;2023-08-30T06:08:47;2.20;;;1.48;;
65375;SDS011;51976;47.332;9.404;2023-08-30T06:11:12;1.90;;;1.33;;
65375;SDS011;51976;47.332;9.404;2023-08-30T06:13:39;2.28;;;1.20;;
65375;SDS011;51976;47.332;9.404;2023-08-30T06:16:06;2.40;;;1.23;;
65375;SDS011;51976;47.332;9.404;2023-08-30T06:18:32;1.98;;;1.30;;
65375;SDS011;51976;47.332;9.404;2023-08-30T06:20:58;1.85;;;1.27;;
65375;SDS011;51976;47.332;9.404;2023-08-30T06:23:24;2.40;;;1.45;;
65375;SDS011;51976;47.332;9.404;2023-08-30T06:25:53;2.10;;;1.50;;
65375;SDS011;51976;47.332;9.404;2023-08-30T06:28:19;2.28;;;1.75;;
65375;SDS011;51976;47.332;9.404;2023-08-30T06:30:46;3.17;;;1.60;;
65375;SDS011;51976;47.332;9.404;2023-08-30T06:33:12;1.88;;;1.30;;
65375;SDS011;51976;47.332;9.404;2023-08-30T06:35:38;2.67;;;1.45;;
65375;SDS011;51976;47.332;9.404;2023-08-30T06:38:04;3.28;;;1.92;;
65375;SDS011;51976;47.332;9.404;2023-08-30T06:40:30;2.67;;;1.73;;
65375;SDS011;51976;47.332;9.404;2023-08-30T06:42:56;2.08;;;1.58;;
65375;SDS011;51976;47.332;9.404;2023-08-30T06:45:25;2.17;;;1.30;;
65375;SDS011;51976;47.332;9.404;2023-08-30T06:47:51;3.25;;;1.90;;
65375;SDS011;51976;47.332;9.404;2023-08-30T06:50:19;4.18;;;2.42;;
65375;SDS011;51976;47.332;9.404;2023-08-30T06:52:44;5.32;;;2.40;;
65375;SDS011;51976;47.332;9.404;2023-08-30T06:55:10;14.38;;;2.03;;
65375;SDS011;51976;47.332;9.404;2023-08-30T06:57:36;3.25;;;1.70;;
65375;SDS011;51976;47.332;9.404;2023-08-30T07:00:01;6.78;;;3.38;;
65375;SDS011;51976;47.332;9.404;2023-08-30T07:02:34;4.70;;;3.35;;
65375;SDS011;51976;47.332;9.404;2023-08-30T07:05:04;7.40;;;4.07;;
65375;SDS011;51976;47.332;9.404;2023-08-30T07:07:32;7.75;;;3.88;;
65375;SDS011;51976;47.332;9.404;2023-08-30T07:09:58;12.40;;;5.85;;
65375;SDS011;51976;47.332;9.404;2023-08-30T07:12:25;9.30;;;4.18;;
65375;SDS011;51976;47.332;9.404;2023-08-30T07:14:51;5.43;;;3.47;;
65375;SDS011;51976;47.332;9.404;2023-08-30T07:17:19;5.55;;;3.00;;
65375;SDS011;51976;47.332;9.404;2023-08-30T07:19:47;10.25;;;4.68;;
65375;SDS011;51976;47.332;9.404;2023-08-30T07:22:15;10.25;;;5.70;;
65375;SDS011;51976;47.332;9.404;2023-08-30T07:24:44;8.50;;;4.20;;
65375;SDS011;51976;47.332;9.404;2023-08-30T07:27:11;8.18;;;4.60;;
65375;SDS011;51976;47.332;9.404;2023-08-30T07:29:38;6.40;;;4.38;;
65375;SDS011;51976;47.332;9.404;2023-08-30T07:32:06;8.38;;;5.25;;
65375;SDS011;51976;47.332;9.404;2023-08-30T07:34:36;4.50;;;2.63;;
65375;SDS011;51976;47.332;9.404;2023-08-30T07:37:02;6.18;;;3.95;;
65375;SDS011;51976;47.332;9.404;2023-08-30T07:39:28;6.53;;;3.88;;
65375;SDS011;51976;47.332;9.404;2023-08-30T07:41:54;7.88;;;4.45;;
65375;SDS011;51976;47.332;9.404;2023-08-30T07:44:20;8.20;;;5.07;;
65375;SDS011;51976;47.332;9.404;2023-08-30T07:46:45;4.50;;;2.08;;
65375;SDS011;51976;47.332;9.404;2023-08-30T07:49:11;4.63;;;2.63;;
65375;SDS011;51976;47.332;9.404;2023-08-30T07:51:39;11.15;;;7.20;;
65375;SDS011;51976;47.332;9.404;2023-08-30T07:54:05;7.15;;;4.07;;
65375;SDS011;51976;47.332;9.404;2023-08-30T07:56:31;8.05;;;5.22;;
65375;SDS011;51976;47.332;9.404;2023-08-30T07:58:56;7.35;;;4.22;;
65375;SDS011;51976;47.332;9.404;2023-08-30T08:01:23;9.48;;;5.10;;
65375;SDS011;51976;47.332;9.404;2023-08-30T08:03:49;4.35;;;2.70;;
65375;SDS011;51976;47.332;9.404;2023-08-30T08:06:15;6.00;;;4.18;;
65375;SDS011;51976;47.332;9.404;2023-08-30T08:08:41;5.93;;;3.42;;
65375;SDS011;51976;47.332;9.404;2023-08-30T08:11:06;6.95;;;4.10;;
65375;SDS011;51976;47.332;9.404;2023-08-30T08:13:32;4.18;;;2.95;;
65375;SDS011;51976;47.332;9.404;2023-08-30T08:15:59;3.85;;;2.13;;
65375;SDS011;51976;47.332;9.404;2023-08-30T08:18:26;5.00;;;3.13;;
65375;SDS011;51976;47.332;9.404;2023-08-30T08:20:52;5.13;;;3.40;;
65375;SDS011;51976;47.332;9.404;2023-08-30T08:23:19;3.53;;;2.17;;
65375;SDS011;51976;47.332;9.404;2023-08-30T08:25:44;5.18;;;2.75;;
65375;SDS011;51976;47.332;9.404;2023-08-30T08:28:09;4.63;;;2.95;;
65375;SDS011;51976;47.332;9.404;2023-08-30T08:30:36;6.18;;;1.80;;
65375;SDS011;51976;47.332;9.404;2023-08-30T08:33:02;6.35;;;1.90;;
65375;SDS011;51976;47.332;9.404;2023-08-30T08:35:29;1.88;;;1.08;;
65375;SDS011;51976;47.332;9.404;2023-08-30T08:37:57;3.67;;;1.90;;
65375;SDS011;51976;47.332;9.404;2023-08-30T08:40:22;3.35;;;1.50;;
65375;SDS011;51976;47.332;9.404;2023-08-30T08:42:48;1.90;;;1.10;;
65375;SDS011;51976;47.332;9.404;2023-08-30T08:45:18;3.60;;;1.33;;
65375;SDS011;51976;47.332;9.404;2023-08-30T08:47:46;1.20;;;0.50;;
65375;SDS011;51976;47.332;9.404;2023-08-30T08:50:13;1.58;;;0.80;;
65375;SDS011;51976;47.332;9.404;2023-08-30T08:52:39;2.53;;;0.63;;
65375;SDS011;51976;47.332;9.404;2023-08-30T08:55:05;1.48;;;0.70;;
65375;SDS011;51976;47.332;9.404;2023-08-30T08:57:31;2.97;;;0.80;;
65375;SDS011;51976;47.332;9.404;2023-08-30T08:59:57;1.50;;;0.70;;
65375;SDS011;51976;47.332;9.404;2023-08-30T09:02:26;2.35;;;0.70;;
65375;SDS011;51976;47.332;9.404;2023-08-30T09:04:54;2.20;;;0.77;;
65375;SDS011;51976;47.332;9.404;2023-08-30T09:07:20;4.22;;;0.70;;
65375;SDS011;51976;47.332;9.404;2023-08-30T09:09:50;2.95;;;0.68;;
65375;SDS011;51976;47.332;9.404;2023-08-30T09:12:17;1.50;;;0.55;;
65375;SDS011;51976;47.332;9.404;2023-08-30T09:14:52;1.00;;;0.50;;
65375;SDS011;51976;47.332;9.404;2023-08-30T09:17:22;1.02;;;0.43;;
65375;SDS011;51976;47.332;9.404;2023-08-30T09:19:49;1.10;;;0.60;;
65375;SDS011;51976;47.332;9.404;2023-08-30T09:22:16;3.58;;;0.47;;
65375;SDS011;51976;47.332;9.404;2023-08-30T09:24:41;2.80;;;0.68;;
65375;SDS011;51976;47.332;9.404;2023-08-30T09:27:07;1.90;;;0.60;;
65375;SDS011;51976;47.332;9.404;2023-08-30T09:29:34;1.48;;;0.60;;
65375;SDS011;51976;47.332;9.404;2023-08-30T09:32:00;1.60;;;0.60;;
65375;SDS011;51976;47.332;9.404;2023-08-30T09:34:26;1.83;;;0.80;;
65375;SDS011;51976;47.332;9.404;2023-08-30T09:36:52;2.63;;;0.68;;
65375;SDS011;51976;47.332;9.404;2023-08-30T09:39:18;1.15;;;0.55;;
65375;SDS011;51976;47.332;9.404;2023-08-30T09:41:46;1.63;;;0.60;;
65375;SDS011;51976;47.332;9.404;2023-08-30T09:44:13;3.17;;;0.60;;
65375;SDS011;51976;47.332;9.404;2023-08-30T09:46:43;1.40;;;0.80;;
65375;SDS011;51976;47.332;9.404;2023-08-30T09:49:10;6.03;;;0.90;;
65375;SDS011;51976;47.332;9.404;2023-08-30T09:51:39;1.15;;;0.60;;
65375;SDS011;51976;47.332;9.404;2023-08-30T09:54:10;2.83;;;0.80;;
65375;SDS011;51976;47.332;9.404;2023-08-30T09:56:40;2.40;;;0.70;;
65375;SDS011;51976;47.332;9.404;2023-08-30T09:59:06;0.98;;;0.60;;
65375;SDS011;51976;47.332;9.404;2023-08-30T10:01:33;0.90;;;0.55;;
65375;SDS011;51976;47.332;9.404;2023-08-30T10:03:59;1.70;;;0.80;;
65375;SDS011;51976;47.332;9.404;2023-08-30T10:06:28;1.65;;;1.20;;
65375;SDS011;51976;47.332;9.404;2023-08-30T10:08:54;1.02;;;0.70;;
65375;SDS011;51976;47.332;9.404;2023-08-30T10:11:21;2.33;;;1.23;;
65375;SDS011;51976;47.332;9.404;2023-08-30T10:13:48;2.33;;;1.75;;
65375;SDS011;51976;47.332;9.404;2023-08-30T10:16:19;2.58;;;1.70;;
65375;SDS011;51976;47.332;9.404;2023-08-30T10:18:47;2.88;;;1.35;;
65375;SDS011;51976;47.332;9.404;2023-08-30T10:21:17;2.85;;;1.23;;
65375;SDS011;51976;47.332;9.404;2023-08-30T10:23:45;2.25;;;1.30;;
65375;SDS011;51976;47.332;9.404;2023-08-30T10:26:14;3.15;;;1.20;;
65375;SDS011;51976;47.332;9.404;2023-08-30T10:28:43;3.88;;;1.42;;
65375;SDS011;51976;47.332;9.404;2023-08-30T10:31:10;2.58;;;1.27;;
65375;SDS011;51976;47.332;9.404;2023-08-30T10:33:48;2.15;;;1.42;;
65375;SDS011;51976;47.332;9.404;2023-08-30T10:36:23;1.60;;;1.00;;
65375;SDS011;51976;47.332;9.404;2023-08-30T10:38:52;2.13;;;1.23;;
65375;SDS011;51976;47.332;9.404;2023-08-30T10:41:24;1.77;;;1.20;;
65375;SDS011;51976;47.332;9.404;2023-08-30T10:43:51;2.22;;;1.33;;
65375;SDS011;51976;47.332;9.404;2023-08-30T10:46:29;1.80;;;1.10;;
65375;SDS011;51976;47.332;9.404;2023-08-30T10:48:56;2.35;;;1.10;;
65375;SDS011;51976;47.332;9.404;2023-08-30T10:51:37;2.90;;;1.02;;
65375;SDS011;51976;47.332;9.404;2023-08-30T10:54:12;2.83;;;1.20;;
65375;SDS011;51976;47.332;9.404;2023-08-30T10:56:47;3.08;;;1.25;;
65375;SDS011;51976;47.332;9.404;2023-08-30T10:59:23;2.60;;;1.60;;
65375;SDS011;51976;47.332;9.404;2023-08-30T11:01:50;3.33;;;1.48;;
65375;SDS011;51976;47.332;9.404;2023-08-30T11:04:17;2.20;;;1.48;;
65375;SDS011;51976;47.332;9.404;2023-08-30T11:06:44;2.60;;;1.80;;
65375;SDS011;51976;47.332;9.404;2023-08-30T11:09:13;3.35;;;2.20;;
65375;SDS011;51976;47.332;9.404;2023-08-30T11:11:40;4.07;;;2.05;;
65375;SDS011;51976;47.332;9.404;2023-08-30T11:14:06;5.70;;;2.40;;
65375;SDS011;51976;47.332;9.404;2023-08-30T11:16:35;5.57;;;2.05;;
65375;SDS011;51976;47.332;9.404;2023-08-30T11:19:03;4.63;;;2.03;;
65375;SDS011;51976;47.332;9.404;2023-08-30T11:21:30;2.80;;;1.73;;
65375;SDS011;51976;47.332;9.404;2023-08-30T11:23:58;5.55;;;2.03;;
65375;SDS011;51976;47.332;9.404;2023-08-30T11:26:23;2.83;;;1.83;;
65375;SDS011;51976;47.332;9.404;2023-08-30T11:28:50;9.02;;;2.30;;
65375;SDS011;51976;47.332;9.404;2023-08-30T11:31:24;4.32;;;2.53;;
65375;SDS011;51976;47.332;9.404;2023-08-30T11:33:53;7.72;;;2.45;;
65375;SDS011;51976;47.332;9.404;2023-08-30T11:36:22;3.58;;;2.47;;
65375;SDS011;51976;47.332;9.404;2023-08-30T11:38:52;4.07;;;2.13;;
65375;SDS011;51976;47.332;9.404;2023-08-30T11:41:22;2.63;;;2.20;;
65375;SDS011;51976;47.332;9.404;2023-08-30T11:43:49;3.17;;;2.28;;
65375;SDS011;51976;47.332;9.404;2023-08-30T11:46:16;4.07;;;2.42;;
65375;SDS011;51976;47.332;9.404;2023-08-30T11:48:43;3.17;;;2.20;;
65375;SDS011;51976;47.332;9.404;2023-08-30T11:51:11;2.45;;;1.77;;
65375;SDS011;51976;47.332;9.404;2023-08-30T11:53:39;3.25;;;2.22;;
65375;SDS011;51976;47.332;9.404;2023-08-30T11:56:06;3.38;;;2.13;;
65375;SDS011;51976;47.332;9.404;2023-08-30T11:58:34;2.35;;;2.00;;
65375;SDS011;51976;47.332;9.404;2023-08-30T12:01:03;2.83;;;2.50;;
65375;SDS011;51976;47.332;9.404;2023-08-30T12:03:31;2.83;;;2.10;;
65375;SDS011;51976;47.332;9.404;2023-08-30T12:05:58;2.72;;;2.03;;
65375;SDS011;51976;47.332;9.404;2023-08-30T12:08:25;3.38;;;2.05;;
65375;SDS011;51976;47.332;9.404;2023-08-30T12:10:58;3.78;;;2.17;;
65375;SDS011;51976;47.332;9.404;2023-08-30T12:13:26;3.67;;;2.00;;
65375;SDS011;51976;47.332;9.404;2023-08-30T12:15:56;3.15;;;1.83;;
65375;SDS011;51976;47.332;9.404;2023-08-30T12:18:28;2.65;;;1.90;;
65375;SDS011;51976;47.332;9.404;2023-08-30T12:21:00;2.47;;;1.80;;
65375;SDS011;51976;47.332;9.404;2023-08-30T12:23:28;2.30;;;1.63;;
65375;SDS011;51976;47.332;9.404;2023-08-30T12:25:57;2.08;;;1.38;;
65375;SDS011;51976;47.332;9.404;2023-08-30T12:28:29;3.10;;;1.83;;
65375;SDS011;51976;47.332;9.404;2023-08-30T12:30:58;2.78;;;1.65;;
65375;SDS011;51976;47.332;9.404;2023-08-30T12:33:24;2.22;;;1.75;;
65375;SDS011;51976;47.332;9.404;2023-08-30T12:35:53;3.17;;;1.85;;
65375;SDS011;51976;47.332;9.404;2023-08-30T12:38:20;2.70;;;1.70;;
65375;SDS011;51976;47.332;9.404;2023-08-30T12:40:47;2.15;;;1.50;;
65375;SDS011;51976;47.332;9.404;2023-08-30T12:43:15;2.90;;;1.85;;
65375;SDS011;51976;47.332;9.404;2023-08-30T12:45:41;6.97;;;1.80;;
65375;SDS011;51976;47.332;9.404;2023-08-30T12:48:08;2.88;;;1.90;;
65375;SDS011;51976;47.332;9.404;2023-08-30T12:50:36;2.75;;;2.03;;
65375;SDS011;51976;47.332;9.404;2023-08-30T12:53:03;3.08;;;2.15;;
65375;SDS011;51976;47.332;9.404;2023-08-30T12:55:29;2.13;;;1.83;;
65375;SDS011;51976;47.332;9.404;2023-08-30T12:57:55;3.00;;;2.47;;
65375;SDS011;51976;47.332;9.404;2023-08-30T13:00:20;2.85;;;2.50;;
65375;SDS011;51976;47.332;9.404;2023-08-30T13:02:46;6.15;;;3.17;;
65375;SDS011;51976;47.332;9.404;2023-08-30T13:05:14;3.38;;;2.83;;
65375;SDS011;51976;47.332;9.404;2023-08-30T13:07:39;3.10;;;2.20;;
65375;SDS011;51976;47.332;9.404;2023-08-30T13:10:06;3.33;;;2.70;;
65375;SDS011;51976;47.332;9.404;2023-08-30T13:12:33;1.83;;;1.60;;
65375;SDS011;51976;47.332;9.404;2023-08-30T13:14:58;5.15;;;2.85;;
65375;SDS011;51976;47.332;9.404;2023-08-30T13:17:24;3.00;;;2.45;;
65375;SDS011;51976;47.332;9.404;2023-08-30T13:19:50;4.55;;;2.67;;
65375;SDS011;51976;47.332;9.404;2023-08-30T13:22:16;3.38;;;2.38;;
65375;SDS011;51976;47.332;9.404;2023-08-30T13:24:43;4.93;;;2.25;;
65375;SDS011;51976;47.332;9.404;2023-08-30T13:27:09;3.40;;;2.10;;
65375;SDS011;51976;47.332;9.404;2023-08-30T13:29:35;3.30;;;2.20;;
65375;SDS011;51976;47.332;9.404;2023-08-30T13:32:01;3.15;;;1.85;;
65375;SDS011;51976;47.332;9.404;2023-08-30T13:34:28;3.95;;;2.05;;
65375;SDS011;51976;47.332;9.404;2023-08-30T13:36:53;4.10;;;2.45;;
65375;SDS011;51976;47.332;9.404;2023-08-30T13:39:19;2.50;;;2.15;;
65375;SDS011;51976;47.332;9.404;2023-08-30T13:41:47;2.90;;;1.85;;
65375;SDS011;51976;47.332;9.404;2023-08-30T13:44:13;2.15;;;1.50;;
65375;SDS011;51976;47.332;9.404;2023-08-30T13:46:39;1.92;;;1.50;;
65375;SDS011;51976;47.332;9.404;2023-08-30T13:49:05;3.85;;;1.85;;
65375;SDS011;51976;47.332;9.404;2023-08-30T13:51:31;2.53;;;1.40;;
65375;SDS011;51976;47.332;9.404;2023-08-30T13:53:56;2.00;;;1.23;;
65375;SDS011;51976;47.332;9.404;2023-08-30T13:56:22;1.58;;;0.95;;
65375;SDS011;51976;47.332;9.404;2023-08-30T13:58:48;3.30;;;1.00;;
65375;SDS011;51976;47.332;9.404;2023-08-30T14:01:14;2.15;;;1.00;;
65375;SDS011;51976;47.332;9.404;2023-08-30T14:03:40;2.22;;;1.00;;
65375;SDS011;51976;47.332;9.404;2023-08-30T14:06:05;3.65;;;1.13;;
65375;SDS011;51976;47.332;9.404;2023-08-30T14:08:31;1.10;;;0.80;;
65375;SDS011;51976;47.332;9.404;2023-08-30T14:10:56;1.75;;;0.80;;
65375;SDS011;51976;47.332;9.404;2023-08-30T14:13:22;2.97;;;0.98;;
65375;SDS011;51976;47.332;9.404;2023-08-30T14:15:50;4.47;;;2.40;;
65375;SDS011;51976;47.332;9.404;2023-08-30T14:18:16;4.88;;;3.03;;
65375;SDS011;51976;47.332;9.404;2023-08-30T14:20:41;4.80;;;2.25;;
65375;SDS011;51976;47.332;9.404;2023-08-30T14:23:07;3.50;;;2.15;;
65375;SDS011;51976;47.332;9.404;2023-08-30T14:25:34;3.17;;;2.15;;
65375;SDS011;51976;47.332;9.404;2023-08-30T14:28:00;12.18;;;6.03;;
65375;SDS011;51976;47.332;9.404;2023-08-30T14:30:28;6.72;;;3.90;;
65375;SDS011;51976;47.332;9.404;2023-08-30T14:32:54;2.33;;;1.48;;
65375;SDS011;51976;47.332;9.404;2023-08-30T14:35:19;1.85;;;0.98;;
65375;SDS011;51976;47.332;9.404;2023-08-30T14:37:46;3.47;;;1.77;;
65375;SDS011;51976;47.332;9.404;2023-08-30T14:40:12;3.28;;;1.85;;
65375;SDS011;51976;47.332;9.404;2023-08-30T14:42:38;4.20;;;2.20;;
65375;SDS011;51976;47.332;9.404;2023-08-30T14:45:04;3.22;;;1.92;;